Aérodrome :
LOGIN :

S'inscrire | Disclaimer

   EN    FR    IT 

 










Légende :    VFR   VFR Marginal   IFR   IFR Intensif   IFR Très Intensif
Visi : 
Plafond : 
>= 8 km
>= 3000ft
5 à 8 km
1000 à 3000 ft
1500m à 5 km
500 à 1000 ft
800 à 1500m
200 à 500 ft
< 800m
< 200 ft
Symboles :   Orages  Brouillard  Fortes neiges  Fortes précipitations  Vent > 20 kt
SIGMETs :   Divers  Orages  Givrage  Turbulence  Onde Orograph.  Cendres Volcan.






- Altitude de l'aérodrome : 157 ft
- Code IATA : LIL


LFQQ - Lille Lesquin

DERNIER METAR :
  • 040430Z AUTO 19008KT 9999 -RA SCT043/// BKN094/// OVC110/// ///TCU 15/13 Q1016 BECMG NSC

METARs EXPIRÉS :
  • 040400Z AUTO 18009KT 9999 -RA FEW044/// BKN066/// OVC110/// ///TCU 15/13 Q1016 BECMG NSC
  • 040330Z AUTO 20007KT 9999 -RA FEW048/// OVC062/// ///TCU 15/13 Q1016 BECMG NSC
  • 040300Z AUTO 19007KT 9999 -RA FEW048/// BKN056/// OVC088/// ///TCU 15/12 Q1016 BECMG NSC
  • 040230Z AUTO 18009KT CAVOK 15/12 Q1016 NOSIG
  • 040200Z AUTO 19008KT CAVOK 15/12 Q1017 NOSIG

TAF TAF LFQQ
Valide du 04 à 00h jusqu'au 05 à 06h UTC


032300Z 0400/0506 22010KT CAVOK
BECMG 0407/0410 OVC013
TEMPO 0410/0506 3000 RA OVC007
PROB40
TEMPO 0412/0418 23017G27KT
TEMPO 0501/0506 26015G25KT
ATIS : +33 3 20 16 19 54



MET'MAP, la Météo Aéronautique d'un coup d'oeil ! - Copyright ORBIFLY Décembre 2007 - Disclaimer

ORBIFLY MET'MAP TEAM :

Programmation & Développement : Alexandra Zaïnal
Sur une idée originale de : Baudouin d'Aumeries
Assistance à la programmation : Marc-Olivier Méhu
Soutien technique & logistique : Manuel Goepfert

Contact : metmap@orbifly.com




SOURCES & CREDITS :

   NOAA